Time;durP1;ratioP1;P1;durP2;ratioP2;P2;SDS_P1;SDS_P2;PMS_P1;PMS_P2;Temp;Humidity;BMP_temperature;BMP_pressure;BME280_temperature;BME280_humidity;BME280_pressure;Samples;Min_cycle;Max_cycle;Signal;HPM_P1;HPM_P2
2022/07/26 00:00:51;;;;;;;2.60;2.50;;;;;;;;;;1884049;75;26194;-86
2022/07/26 00:03:18;;;;;;;2.50;2.40;;;;;;;;;;1871868;75;26219;-87
2022/07/26 00:05:45;;;;;;;2.40;2.30;;;;;;;;;;1878285;74;26178;-87
2022/07/26 00:08:13;;;;;;;2.30;2.20;;;;;;;;;;1891226;75;26756;-87
2022/07/26 00:10:42;;;;;;;2.50;2.40;;;;;;;;;;1880745;75;26164;-87
2022/07/26 00:13:09;;;;;;;2.50;2.40;;;;;;;;;;1886452;75;26206;-87
2022/07/26 00:15:37;;;;;;;2.25;2.15;;;;;;;;;;1890289;75;26207;-86
2022/07/26 00:18:04;;;;;;;2.37;2.27;;;;;;;;;;1894564;75;26244;-88
2022/07/26 00:20:31;;;;;;;2.50;2.40;;;;;;;;;;1883901;75;26687;-87
2022/07/26 00:22:59;;;;;;;2.15;2.05;;;;;;;;;;1891774;75;26172;-88
2022/07/26 00:25:26;;;;;;;2.30;2.20;;;;;;;;;;1884454;75;27025;-88
2022/07/26 00:27:53;;;;;;;2.27;2.20;;;;;;;;;;1894912;75;26192;-87
2022/07/26 00:30:21;;;;;;;2.33;2.22;;;;;;;;;;1876878;75;26305;-87
2022/07/26 00:32:48;;;;;;;2.50;2.40;;;;;;;;;;1878841;76;26218;-87
2022/07/26 00:35:15;;;;;;;2.15;2.15;;;;;;;;;;1882422;75;26271;-88
2022/07/26 00:37:43;;;;;;;2.30;2.20;;;;;;;;;;1880356;75;26198;-87
2022/07/26 00:40:10;;;;;;;2.27;2.20;;;;;;;;;;1865019;75;26636;-87
2022/07/26 00:42:37;;;;;;;2.30;2.20;;;;;;;;;;1876877;75;26187;-87
2022/07/26 00:45:06;;;;;;;2.45;2.35;;;;;;;;;;1856641;76;26213;-88
2022/07/26 00:47:33;;;;;;;2.33;2.22;;;;;;;;;;1894737;75;26725;-87
2022/07/26 00:50:01;;;;;;;2.33;2.22;;;;;;;;;;1873971;75;26168;-88
2022/07/26 00:52:28;;;;;;;2.37;2.27;;;;;;;;;;1887587;75;26217;-88
2022/07/26 00:54:55;;;;;;;2.30;2.20;;;;;;;;;;1892870;75;26196;-88
2022/07/26 00:57:23;;;;;;;2.30;2.20;;;;;;;;;;1891730;75;26248;-88
2022/07/26 00:59:51;;;;;;;2.20;2.10;;;;;;;;;;1890149;75;26268;-88
2022/07/26 01:02:18;;;;;;;2.20;2.10;;;;;;;;;;1896362;75;26204;-89
2022/07/26 01:04:45;;;;;;;2.45;2.35;;;;;;;;;;1870949;76;26627;-88
2022/07/26 01:07:13;;;;;;;2.00;2.00;;;;;;;;;;1868187;74;26214;-87
2022/07/26 01:09:40;;;;;;;2.30;2.30;;;;;;;;;;1862888;75;26199;-87
2022/07/26 01:12:08;;;;;;;2.00;2.00;;;;;;;;;;1882061;75;26216;-87
2022/07/26 01:14:35;;;;;;;2.47;2.37;;;;;;;;;;1876803;75;26246;-87
2022/07/26 01:17:03;;;;;;;2.30;2.20;;;;;;;;;;1888515;76;26269;-87
2022/07/26 01:19:30;;;;;;;2.12;2.12;;;;;;;;;;1887686;75;26168;-88
2022/07/26 01:21:57;;;;;;;2.47;2.37;;;;;;;;;;1897082;75;26265;-89
2022/07/26 01:24:25;;;;;;;2.10;2.10;;;;;;;;;;1885842;75;26618;-87
2022/07/26 01:26:54;;;;;;;2.00;2.00;;;;;;;;;;1884560;75;26214;-85
2022/07/26 01:29:21;;;;;;;2.05;2.00;;;;;;;;;;1894112;75;26200;-88
2022/07/26 01:31:49;;;;;;;1.98;1.98;;;;;;;;;;1896535;75;26659;-87
2022/07/26 01:34:16;;;;;;;2.20;2.10;;;;;;;;;;1878740;75;26265;-87
2022/07/26 01:36:44;;;;;;;2.05;2.05;;;;;;;;;;1880749;76;26666;-87
2022/07/26 01:39:11;;;;;;;1.85;1.85;;;;;;;;;;1880922;75;26260;-87
2022/07/26 01:41:39;;;;;;;2.10;2.10;;;;;;;;;;1887676;75;26251;-86
2022/07/26 01:44:06;;;;;;;2.20;2.10;;;;;;;;;;1874254;75;26329;-86
2022/07/26 01:46:34;;;;;;;2.20;2.10;;;;;;;;;;1891364;75;26252;-86
2022/07/26 01:49:02;;;;;;;1.90;1.90;;;;;;;;;;1900912;75;26212;-88
2022/07/26 01:51:29;;;;;;;2.25;2.15;;;;;;;;;;1889598;75;26763;-87
2022/07/26 01:53:56;;;;;;;2.20;2.10;;;;;;;;;;1877599;76;26633;-87
2022/07/26 01:56:23;;;;;;;2.10;2.10;;;;;;;;;;1889495;75;26628;-87
2022/07/26 01:58:51;;;;;;;2.30;2.20;;;;;;;;;;1901616;75;26272;-87
2022/07/26 02:01:18;;;;;;;1.98;1.98;;;;;;;;;;1873781;75;26805;-88
2022/07/26 02:03:45;;;;;;;1.92;1.92;;;;;;;;;;1873851;75;26239;-87
2022/07/26 02:06:13;;;;;;;2.10;2.00;;;;;;;;;;1870672;75;26215;-87
2022/07/26 02:08:40;;;;;;;1.92;1.92;;;;;;;;;;1884874;75;26597;-87
2022/07/26 02:11:07;;;;;;;2.30;2.20;;;;;;;;;;1888354;75;26207;-86
2022/07/26 02:13:36;;;;;;;2.17;2.17;;;;;;;;;;1882136;75;26245;-86
2022/07/26 02:16:04;;;;;;;2.17;2.10;;;;;;;;;;1888272;75;26717;-87
2022/07/26 02:18:32;;;;;;;2.20;2.10;;;;;;;;;;1883387;76;26202;-87
2022/07/26 02:21:00;;;;;;;2.05;2.05;;;;;;;;;;1869927;75;25380;-87
2022/07/26 02:23:28;;;;;;;2.40;2.30;;;;;;;;;;1874355;75;26648;-87
2022/07/26 02:25:55;;;;;;;2.20;2.10;;;;;;;;;;1867641;75;26313;-87
2022/07/26 02:28:23;;;;;;;2.30;2.20;;;;;;;;;;1886519;75;26581;-88
2022/07/26 02:30:50;;;;;;;2.00;2.00;;;;;;;;;;1872691;75;26326;-87
2022/07/26 02:33:18;;;;;;;2.20;2.20;;;;;;;;;;1879091;76;26197;-88
2022/07/26 02:35:45;;;;;;;1.92;1.92;;;;;;;;;;1895747;74;26669;-87
2022/07/26 02:38:14;;;;;;;2.45;2.35;;;;;;;;;;1882325;76;26258;-87
2022/07/26 02:40:42;;;;;;;2.27;2.17;;;;;;;;;;1882976;75;26234;-87
2022/07/26 02:43:09;;;;;;;2.02;2.02;;;;;;;;;;1889018;75;26176;-87
2022/07/26 02:45:37;;;;;;;2.10;2.05;;;;;;;;;;1885691;75;26284;-87
2022/07/26 02:48:04;;;;;;;2.20;2.20;;;;;;;;;;1877130;76;26188;-87
2022/07/26 02:50:32;;;;;;;2.00;2.00;;;;;;;;;;1892658;75;26199;-86
2022/07/26 02:52:59;;;;;;;2.30;2.20;;;;;;;;;;1889207;75;26219;-87
2022/07/26 02:55:26;;;;;;;2.15;2.05;;;;;;;;;;1872331;75;26272;-87
2022/07/26 02:57:54;;;;;;;2.30;2.20;;;;;;;;;;1884509;75;26250;-86
2022/07/26 03:00:23;;;;;;;2.30;2.27;;;;;;;;;;1873364;75;26195;-88
2022/07/26 03:02:50;;;;;;;1.90;1.90;;;;;;;;;;1880808;75;26604;-88
2022/07/26 03:05:17;;;;;;;2.00;2.00;;;;;;;;;;1880472;75;26199;-88
2022/07/26 03:07:45;;;;;;;1.95;1.95;;;;;;;;;;1892650;76;26179;-88
2022/07/26 03:10:12;;;;;;;2.12;2.10;;;;;;;;;;1877487;73;26272;-88
2022/07/26 03:12:40;;;;;;;2.10;2.05;;;;;;;;;;1884650;75;26710;-88
2022/07/26 03:15:07;;;;;;;1.90;1.90;;;;;;;;;;1869862;75;26187;-88
2022/07/26 03:17:35;;;;;;;2.33;2.22;;;;;;;;;;1894203;75;26258;-88
2022/07/26 03:20:03;;;;;;;2.30;2.20;;;;;;;;;;1879642;75;26167;-87
2022/07/26 03:22:30;;;;;;;2.05;1.98;;;;;;;;;;1877371;75;26197;-87
2022/07/26 03:24:57;;;;;;;2.30;2.20;;;;;;;;;;1897736;75;26192;-88
2022/07/26 03:27:25;;;;;;;2.00;2.00;;;;;;;;;;1894175;76;26636;-87
2022/07/26 03:29:52;;;;;;;2.10;2.08;;;;;;;;;;1880343;75;26644;-86
2022/07/26 03:32:19;;;;;;;1.98;1.98;;;;;;;;;;1878381;75;26680;-88
2022/07/26 03:34:47;;;;;;;1.90;1.90;;;;;;;;;;1899004;75;26196;-86
2022/07/26 03:37:14;;;;;;;1.90;1.80;;;;;;;;;;1878392;75;26209;-86
2022/07/26 03:39:41;;;;;;;2.10;2.10;;;;;;;;;;1882153;75;26233;-87
2022/07/26 03:42:09;;;;;;;2.10;2.10;;;;;;;;;;1876426;75;26214;-86
2022/07/26 03:44:36;;;;;;;2.20;2.10;;;;;;;;;;1883329;75;26680;-87
2022/07/26 03:47:03;;;;;;;2.00;2.00;;;;;;;;;;1879080;75;26206;-88
2022/07/26 03:49:31;;;;;;;2.22;2.10;;;;;;;;;;1899621;75;26176;-87
2022/07/26 03:51:58;;;;;;;1.98;1.98;;;;;;;;;;1865173;75;26223;-87
2022/07/26 03:54:25;;;;;;;2.00;2.00;;;;;;;;;;1884047;75;26230;-87
2022/07/26 03:56:53;;;;;;;2.05;2.05;;;;;;;;;;1870932;75;27005;-88
2022/07/26 03:59:21;;;;;;;1.87;1.87;;;;;;;;;;1893301;75;26191;-87
2022/07/26 04:01:48;;;;;;;2.12;2.02;;;;;;;;;;1868234;76;26768;-88
2022/07/26 04:04:21;;;;;;;1.85;1.85;;;;;;;;;;1883524;75;26180;-88
2022/07/26 04:06:46;;;;;;;2.08;1.98;;;;;;;;;;1869641;75;26186;-88
2022/07/26 04:09:14;;;;;;;2.02;2.02;;;;;;;;;;1864822;76;26276;-89
2022/07/26 04:11:42;;;;;;;2.10;2.00;;;;;;;;;;1864739;75;26225;-88
2022/07/26 04:14:10;;;;;;;1.80;1.80;;;;;;;;;;1873101;74;26673;-88
2022/07/26 04:16:37;;;;;;;1.95;1.85;;;;;;;;;;1881262;75;26227;-86
2022/07/26 04:19:04;;;;;;;2.00;2.00;;;;;;;;;;1874974;76;26206;-86
2022/07/26 04:21:31;;;;;;;1.90;1.80;;;;;;;;;;1876555;75;26636;-88
2022/07/26 04:23:59;;;;;;;2.27;2.17;;;;;;;;;;1877631;75;26642;-89
2022/07/26 04:26:27;;;;;;;2.02;2.02;;;;;;;;;;1887904;75;26252;-87
2022/07/26 04:28:54;;;;;;;2.00;2.00;;;;;;;;;;1889778;75;26812;-87
2022/07/26 04:31:22;;;;;;;2.10;2.00;;;;;;;;;;1890280;75;26261;-88
2022/07/26 04:33:49;;;;;;;1.98;1.98;;;;;;;;;;1894022;75;26296;-86
2022/07/26 04:36:17;;;;;;;1.90;1.90;;;;;;;;;;1872383;75;26315;-87
2022/07/26 04:38:44;;;;;;;2.10;2.10;;;;;;;;;;1882238;75;26285;-87
2022/07/26 04:41:11;;;;;;;2.10;2.10;;;;;;;;;;1866219;75;26211;-87
2022/07/26 04:43:38;;;;;;;1.95;1.95;;;;;;;;;;1856812;75;26211;-87
2022/07/26 04:46:06;;;;;;;1.85;1.85;;;;;;;;;;1864098;75;26190;-87
2022/07/26 04:48:33;;;;;;;2.30;2.20;;;;;;;;;;1882477;75;26207;-87
2022/07/26 04:51:00;;;;;;;1.87;1.87;;;;;;;;;;1872499;76;26579;-88
2022/07/26 04:53:28;;;;;;;1.82;1.82;;;;;;;;;;1886925;75;26288;-88
2022/07/26 04:55:55;;;;;;;2.00;2.00;;;;;;;;;;1881857;75;26207;-88
2022/07/26 04:58:22;;;;;;;1.98;1.98;;;;;;;;;;1886713;75;26199;-88
2022/07/26 05:00:49;;;;;;;2.10;2.10;;;;;;;;;;1891180;75;26742;-87
2022/07/26 05:03:17;;;;;;;2.10;2.00;;;;;;;;;;1883723;76;26975;-87
2022/07/26 05:05:44;;;;;;;2.00;2.00;;;;;;;;;;1873066;74;26628;-87
2022/07/26 05:08:13;;;;;;;1.95;1.95;;;;;;;;;;1874341;75;26304;-87
2022/07/26 05:10:40;;;;;;;1.90;1.90;;;;;;;;;;1867871;75;26182;-87
2022/07/26 05:13:07;;;;;;;1.95;1.95;;;;;;;;;;1878897;75;26216;-87
2022/07/26 05:15:39;;;;;;;2.00;2.00;;;;;;;;;;1890614;75;26685;-87
2022/07/26 05:18:05;;;;;;;2.27;2.17;;;;;;;;;;1883808;75;26241;-88
2022/07/26 05:20:33;;;;;;;2.30;2.20;;;;;;;;;;1881980;76;26191;-87
2022/07/26 05:23:00;;;;;;;1.80;1.80;;;;;;;;;;1894661;75;26231;-86
2022/07/26 05:25:28;;;;;;;1.80;1.80;;;;;;;;;;1867415;75;26243;-87
2022/07/26 05:27:55;;;;;;;2.12;2.05;;;;;;;;;;1892015;75;27049;-86
2022/07/26 05:30:22;;;;;;;2.10;2.10;;;;;;;;;;1895747;75;26208;-87
2022/07/26 05:32:50;;;;;;;2.30;2.20;;;;;;;;;;1871173;75;26296;-88
2022/07/26 05:35:17;;;;;;;2.00;1.98;;;;;;;;;;1888253;75;26556;-88
2022/07/26 05:37:44;;;;;;;2.00;2.00;;;;;;;;;;1885679;76;26246;-87
2022/07/26 05:40:12;;;;;;;2.00;2.00;;;;;;;;;;1874824;75;26288;-86
2022/07/26 05:42:39;;;;;;;1.70;1.70;;;;;;;;;;1880739;75;26195;-87
2022/07/26 05:45:07;;;;;;;1.80;1.80;;;;;;;;;;1880505;75;26167;-87
2022/07/26 05:47:34;;;;;;;2.00;2.00;;;;;;;;;;1866471;75;26626;-87
2022/07/26 05:50:01;;;;;;;2.10;2.00;;;;;;;;;;1877231;75;26156;-87
2022/07/26 05:52:29;;;;;;;2.20;2.10;;;;;;;;;;1897898;75;26671;-87
2022/07/26 05:54:56;;;;;;;1.92;1.92;;;;;;;;;;1899350;75;26257;-86
2022/07/26 05:57:23;;;;;;;1.70;1.70;;;;;;;;;;1876899;75;26184;-86
2022/07/26 05:59:51;;;;;;;2.05;2.05;;;;;;;;;;1895251;75;26693;-86
2022/07/26 06:02:18;;;;;;;1.90;1.90;;;;;;;;;;1867506;74;26652;-87
2022/07/26 06:04:45;;;;;;;2.20;2.10;;;;;;;;;;1882248;75;26261;-87
2022/07/26 06:07:12;;;;;;;2.00;2.00;;;;;;;;;;1886490;75;26187;-86
2022/07/26 06:09:40;;;;;;;2.20;2.10;;;;;;;;;;1877057;76;26274;-86
2022/07/26 06:12:07;;;;;;;1.82;1.82;;;;;;;;;;1896106;75;26644;-87
2022/07/26 06:14:35;;;;;;;1.90;1.90;;;;;;;;;;1885505;75;26280;-87
2022/07/26 06:17:03;;;;;;;1.90;1.90;;;;;;;;;;1894647;75;26718;-86
2022/07/26 06:19:31;;;;;;;1.70;1.70;;;;;;;;;;1880441;75;26617;-86
2022/07/26 06:21:58;;;;;;;1.70;1.70;;;;;;;;;;1882729;75;26218;-86
2022/07/26 06:24:25;;;;;;;2.00;2.00;;;;;;;;;;1878743;76;26286;-87
2022/07/26 06:26:54;;;;;;;1.90;1.90;;;;;;;;;;1880731;75;26183;-86
2022/07/26 06:29:22;;;;;;;1.80;1.80;;;;;;;;;;1886231;75;26659;-87
2022/07/26 06:31:49;;;;;;;1.70;1.70;;;;;;;;;;1890861;75;26272;-87
2022/07/26 06:34:17;;;;;;;1.70;1.70;;;;;;;;;;1886750;75;26968;-87
2022/07/26 06:36:44;;;;;;;1.98;1.98;;;;;;;;;;1879435;75;26308;-86
2022/07/26 06:39:11;;;;;;;1.92;1.87;;;;;;;;;;1883500;75;26272;-87
2022/07/26 06:41:39;;;;;;;1.90;1.90;;;;;;;;;;1878348;76;26410;-87
2022/07/26 06:44:06;;;;;;;1.80;1.80;;;;;;;;;;1869748;75;26288;-87
2022/07/26 06:46:33;;;;;;;1.62;1.62;;;;;;;;;;1881264;76;26277;-87
2022/07/26 06:49:01;;;;;;;1.70;1.70;;;;;;;;;;1888459;75;26160;-85
2022/07/26 06:51:28;;;;;;;1.50;1.50;;;;;;;;;;1879459;75;26186;-86
2022/07/26 06:53:55;;;;;;;1.62;1.52;;;;;;;;;;1890758;75;26188;-85
2022/07/26 06:56:23;;;;;;;1.67;1.67;;;;;;;;;;1865949;76;26716;-86
2022/07/26 06:58:50;;;;;;;1.60;1.60;;;;;;;;;;1898112;74;26230;-85
2022/07/26 07:01:17;;;;;;;1.30;1.30;;;;;;;;;;1890381;75;26701;-86
2022/07/26 07:03:46;;;;;;;1.60;1.60;;;;;;;;;;1870675;75;26627;-86
2022/07/26 07:06:13;;;;;;;1.40;1.40;;;;;;;;;;1898295;75;26205;-85
2022/07/26 07:08:41;;;;;;;1.40;1.40;;;;;;;;;;1885336;74;26241;-86
2022/07/26 07:11:08;;;;;;;1.47;1.47;;;;;;;;;;1880726;75;26689;-86
2022/07/26 07:13:35;;;;;;;1.27;1.27;;;;;;;;;;1885763;74;26515;-86
2022/07/26 07:16:02;;;;;;;1.50;1.50;;;;;;;;;;1880892;74;26256;-88
2022/07/26 07:18:30;;;;;;;1.50;1.50;;;;;;;;;;1898117;74;26221;-85
2022/07/26 07:20:57;;;;;;;1.52;1.52;;;;;;;;;;1909925;73;26404;-85
2022/07/26 07:23:25;;;;;;;1.40;1.40;;;;;;;;;;1889713;74;26267;-84
2022/07/26 07:25:52;;;;;;;1.40;1.40;;;;;;;;;;1885026;76;26186;-88
2022/07/26 07:28:19;;;;;;;1.50;1.50;;;;;;;;;;1901366;74;26210;-86
2022/07/26 07:30:46;;;;;;;1.40;1.40;;;;;;;;;;1879695;75;26258;-87
2022/07/26 07:33:14;;;;;;;1.40;1.40;;;;;;;;;;1867181;76;26202;-91
2022/07/26 07:35:41;;;;;;;1.40;1.40;;;;;;;;;;1888076;75;26156;-86
2022/07/26 07:38:08;;;;;;;1.40;1.40;;;;;;;;;;1873090;75;26273;-86
2022/07/26 07:40:35;;;;;;;1.50;1.50;;;;;;;;;;1865154;75;26185;-87
2022/07/26 07:43:03;;;;;;;1.50;1.50;;;;;;;;;;1875353;75;26191;-86
2022/07/26 07:45:30;;;;;;;1.50;1.50;;;;;;;;;;1880916;76;26839;-86
2022/07/26 07:47:58;;;;;;;1.40;1.40;;;;;;;;;;1879735;75;26276;-85
2022/07/26 07:50:25;;;;;;;1.45;1.45;;;;;;;;;;1889104;74;26229;-86
2022/07/26 07:52:52;;;;;;;1.40;1.40;;;;;;;;;;1871930;74;26300;-86
2022/07/26 07:55:20;;;;;;;1.45;1.45;;;;;;;;;;1865120;75;26288;-86
2022/07/26 07:57:47;;;;;;;1.60;1.60;;;;;;;;;;1869770;75;26642;-85
2022/07/26 08:00:17;;;;;;;1.60;1.60;;;;;;;;;;1874188;75;26195;-86
2022/07/26 08:02:43;;;;;;;1.50;1.50;;;;;;;;;;1871666;75;26605;-86
2022/07/26 08:05:11;;;;;;;1.60;1.60;;;;;;;;;;1876997;74;26262;-87
2022/07/26 08:07:39;;;;;;;1.50;1.50;;;;;;;;;;1876836;75;26730;-87
2022/07/26 08:10:06;;;;;;;1.30;1.30;;;;;;;;;;1886926;75;26663;-87
2022/07/26 08:12:34;;;;;;;1.52;1.42;;;;;;;;;;1885996;75;26198;-87
2022/07/26 08:15:01;;;;;;;1.95;1.30;;;;;;;;;;1874062;75;26248;-88
2022/07/26 08:17:29;;;;;;;1.65;1.50;;;;;;;;;;1882483;75;26646;-86
2022/07/26 08:19:56;;;;;;;2.47;1.52;;;;;;;;;;1890600;75;26202;-87
2022/07/26 08:22:23;;;;;;;2.95;1.42;;;;;;;;;;1876534;76;26235;-90
2022/07/26 08:24:51;;;;;;;1.70;1.60;;;;;;;;;;1876658;76;26251;-88
2022/07/26 08:27:18;;;;;;;1.92;1.67;;;;;;;;;;1885758;75;26308;-87
2022/07/26 08:29:46;;;;;;;2.95;1.60;;;;;;;;;;1888420;75;26232;-87
2022/07/26 08:32:13;;;;;;;4.45;1.60;;;;;;;;;;1885766;75;26680;-86
2022/07/26 08:34:40;;;;;;;1.70;1.60;;;;;;;;;;1875231;75;26213;-89
2022/07/26 08:37:07;;;;;;;2.20;1.50;;;;;;;;;;1874453;74;26243;-87
2022/07/26 08:39:35;;;;;;;5.37;1.70;;;;;;;;;;1883656;75;26267;-84
2022/07/26 08:42:03;;;;;;;4.45;1.50;;;;;;;;;;1884686;75;26736;-82
2022/07/26 08:44:30;;;;;;;6.00;1.47;;;;;;;;;;1883538;73;26247;-82
2022/07/26 08:46:57;;;;;;;3.85;1.55;;;;;;;;;;1887703;75;26383;-84
2022/07/26 08:49:25;;;;;;;2.92;1.70;;;;;;;;;;1878085;74;26234;-84
2022/07/26 08:51:52;;;;;;;2.30;1.42;;;;;;;;;;1883632;75;26241;-85
2022/07/26 08:54:19;;;;;;;5.40;1.80;;;;;;;;;;1888225;75;26293;-84
2022/07/26 08:56:51;;;;;;;13.45;1.45;;;;;;;;;;1900015;75;26232;-83
2022/07/26 08:59:19;;;;;;;4.55;1.52;;;;;;;;;;1898677;75;26248;-83
2022/07/26 09:01:54;;;;;;;5.22;1.55;;;;;;;;;;1898302;73;26189;-83
2022/07/26 09:04:22;;;;;;;10.75;1.60;;;;;;;;;;1884230;74;26260;-84
2022/07/26 09:06:54;;;;;;;7.40;1.80;;;;;;;;;;1886306;74;26192;-84
2022/07/26 09:09:21;;;;;;;3.10;1.50;;;;;;;;;;1889299;74;26183;-87
2022/07/26 09:11:49;;;;;;;2.15;1.37;;;;;;;;;;1876891;75;26719;-84
2022/07/26 09:14:16;;;;;;;4.62;1.47;;;;;;;;;;1887093;73;27193;-84
2022/07/26 09:16:45;;;;;;;2.20;1.50;;;;;;;;;;1884949;75;26597;-84
2022/07/26 09:19:22;;;;;;;2.35;1.87;;;;;;;;;;1872997;74;26250;-83
2022/07/26 09:21:50;;;;;;;3.02;1.40;;;;;;;;;;1891357;73;26243;-84
2022/07/26 09:24:34;;;;;;;1.60;1.50;;;;;;;;;;1881508;74;26660;-83
2022/07/26 09:27:02;;;;;;;2.40;1.40;;;;;;;;;;1892975;74;26224;-84
2022/07/26 09:29:29;;;;;;;2.77;1.50;;;;;;;;;;1888255;75;26243;-84
2022/07/26 09:32:10;;;;;;;3.25;1.55;;;;;;;;;;1891273;74;26232;-83
2022/07/26 09:34:39;;;;;;;1.37;1.30;;;;;;;;;;1878301;75;26207;-83
2022/07/26 09:37:06;;;;;;;2.08;1.57;;;;;;;;;;1919285;74;26290;-83
2022/07/26 09:39:35;;;;;;;1.95;1.62;;;;;;;;;;1888414;74;26180;-84
2022/07/26 09:42:08;;;;;;;2.50;1.60;;;;;;;;;;1888931;75;26201;-84
2022/07/26 09:44:37;;;;;;;2.70;1.60;;;;;;;;;;1879009;75;26248;-83
2022/07/26 09:47:04;;;;;;;1.40;1.40;;;;;;;;;;1887989;75;26243;-85
2022/07/26 09:49:32;;;;;;;2.08;1.50;;;;;;;;;;1890667;75;26228;-86
2022/07/26 09:51:59;;;;;;;3.35;1.65;;;;;;;;;;1875286;75;26238;-85
2022/07/26 09:54:31;;;;;;;1.52;1.42;;;;;;;;;;1886224;75;26192;-85
2022/07/26 09:56:58;;;;;;;1.72;1.62;;;;;;;;;;1889817;75;26299;-83
2022/07/26 09:59:26;;;;;;;3.95;1.70;;;;;;;;;;1876358;75;26247;-84
2022/07/26 10:01:54;;;;;;;2.25;1.70;;;;;;;;;;1886553;76;26193;-85
2022/07/26 10:04:21;;;;;;;1.60;1.60;;;;;;;;;;1883594;75;26282;-85
2022/07/26 10:06:49;;;;;;;1.80;1.50;;;;;;;;;;1892245;74;26255;-85
2022/07/26 10:09:17;;;;;;;1.70;1.60;;;;;;;;;;1884174;75;26323;-85
2022/07/26 10:11:46;;;;;;;3.35;1.60;;;;;;;;;;1878734;75;26366;-84
2022/07/26 10:14:18;;;;;;;5.60;1.70;;;;;;;;;;1878721;75;26214;-85
2022/07/26 10:16:45;;;;;;;1.80;1.70;;;;;;;;;;1882409;76;26271;-85
2022/07/26 10:19:14;;;;;;;1.85;1.75;;;;;;;;;;1891997;75;26246;-84
2022/07/26 10:21:42;;;;;;;2.42;1.52;;;;;;;;;;1873305;75;26245;-84
2022/07/26 10:24:11;;;;;;;1.60;1.50;;;;;;;;;;1889417;74;26256;-85
2022/07/26 10:26:41;;;;;;;1.50;1.40;;;;;;;;;;1883588;75;26954;-85
2022/07/26 10:29:18;;;;;;;1.70;1.60;;;;;;;;;;1887581;75;26325;-84
2022/07/26 10:31:50;;;;;;;1.52;1.52;;;;;;;;;;1894814;74;26770;-84
2022/07/26 10:34:34;;;;;;;1.70;1.60;;;;;;;;;;1884289;75;26281;-85
2022/07/26 10:37:05;;;;;;;3.42;1.65;;;;;;;;;;1893799;75;26232;-85
2022/07/26 10:39:33;;;;;;;1.45;1.40;;;;;;;;;;1891597;74;26196;-83
2022/07/26 10:42:04;;;;;;;1.60;1.60;;;;;;;;;;1890298;74;26211;-85
2022/07/26 10:44:38;;;;;;;1.92;1.50;;;;;;;;;;1878212;75;26238;-85
2022/07/26 10:47:10;;;;;;;2.20;1.52;;;;;;;;;;1875617;75;26270;-85
2022/07/26 10:49:39;;;;;;;3.60;1.50;;;;;;;;;;1885487;75;26205;-84
2022/07/26 10:52:08;;;;;;;3.15;2.00;;;;;;;;;;1884932;75;26178;-84
2022/07/26 10:54:53;;;;;;;1.70;1.60;;;;;;;;;;1884414;75;26216;-84
2022/07/26 10:57:20;;;;;;;1.50;1.50;;;;;;;;;;1879201;74;26212;-84
2022/07/26 10:59:47;;;;;;;1.85;1.40;;;;;;;;;;1885726;75;26195;-85
2022/07/26 11:02:21;;;;;;;1.50;1.40;;;;;;;;;;1868010;75;26195;-85
2022/07/26 11:04:49;;;;;;;1.62;1.50;;;;;;;;;;1886026;74;26312;-85
2022/07/26 11:07:16;;;;;;;1.85;1.57;;;;;;;;;;1869538;76;26829;-84
2022/07/26 11:09:43;;;;;;;1.50;1.40;;;;;;;;;;1872040;75;26178;-84
2022/07/26 11:12:17;;;;;;;1.50;1.50;;;;;;;;;;1882276;75;26636;-84
2022/07/26 11:14:44;;;;;;;1.50;1.40;;;;;;;;;;1884585;74;26262;-86
2022/07/26 11:17:24;;;;;;;1.67;1.60;;;;;;;;;;1885596;75;26187;-84
2022/07/26 11:19:52;;;;;;;1.47;1.40;;;;;;;;;;1886409;75;26690;-84
2022/07/26 11:22:19;;;;;;;1.40;1.40;;;;;;;;;;1890912;75;26711;-82
2022/07/26 11:24:46;;;;;;;1.40;1.30;;;;;;;;;;1880542;75;26644;-83
2022/07/26 11:27:13;;;;;;;1.42;1.30;;;;;;;;;;1880657;75;26168;-83
2022/07/26 11:29:41;;;;;;;1.55;1.42;;;;;;;;;;1879221;76;26822;-83
2022/07/26 11:32:18;;;;;;;1.75;1.50;;;;;;;;;;1888257;74;26174;-82
2022/07/26 11:34:46;;;;;;;2.80;1.57;;;;;;;;;;1828143;77;26229;-84
2022/07/26 11:37:13;;;;;;;1.40;1.40;;;;;;;;;;1811062;78;26788;-83
2022/07/26 11:39:41;;;;;;;1.42;1.32;;;;;;;;;;1864839;75;26199;-82
2022/07/26 11:42:13;;;;;;;1.60;1.50;;;;;;;;;;1858236;75;26287;-83
2022/07/26 11:44:44;;;;;;;2.83;1.45;;;;;;;;;;1832169;76;26296;-82
2022/07/26 11:47:12;;;;;;;1.30;1.30;;;;;;;;;;1855561;76;26324;-81
2022/07/26 11:49:40;;;;;;;1.52;1.52;;;;;;;;;;1844919;76;26257;-82
2022/07/26 11:52:07;;;;;;;3.52;1.30;;;;;;;;;;1851405;76;26309;-82
2022/07/26 11:54:45;;;;;;;1.30;1.30;;;;;;;;;;1852256;76;26262;-80
2022/07/26 11:57:12;;;;;;;1.30;1.30;;;;;;;;;;1855718;76;26234;-83
2022/07/26 11:59:40;;;;;;;1.10;1.10;;;;;;;;;;1847574;76;26758;-81
2022/07/26 12:02:08;;;;;;;1.40;1.40;;;;;;;;;;1856270;76;26323;-83
2022/07/26 12:04:37;;;;;;;1.47;1.40;;;;;;;;;;1848916;76;27136;-82
2022/07/26 12:07:11;;;;;;;1.20;1.20;;;;;;;;;;1854354;76;26758;-83
2022/07/26 12:09:40;;;;;;;1.92;1.42;;;;;;;;;;1832160;76;26776;-83
2022/07/26 12:12:09;;;;;;;2.12;1.35;;;;;;;;;;1846621;76;26242;-83
2022/07/26 12:14:37;;;;;;;1.30;1.30;;;;;;;;;;1838805;77;26701;-83
2022/07/26 12:17:11;;;;;;;1.95;1.27;;;;;;;;;;1837633;76;26254;-83
2022/07/26 12:19:38;;;;;;;1.35;1.35;;;;;;;;;;1854644;76;26197;-84
2022/07/26 12:22:12;;;;;;;1.35;1.30;;;;;;;;;;1852247;76;26777;-85
2022/07/26 12:24:41;;;;;;;1.98;1.40;;;;;;;;;;1860115;76;26215;-87
2022/07/26 12:27:10;;;;;;;1.55;1.45;;;;;;;;;;1860891;76;26341;-87
2022/07/26 12:29:38;;;;;;;1.95;1.40;;;;;;;;;;1860246;75;26314;-87
2022/07/26 12:32:06;;;;;;;1.72;1.62;;;;;;;;;;1816145;77;26938;-87
2022/07/26 12:34:34;;;;;;;1.55;1.45;;;;;;;;;;1831453;77;26320;-87
2022/07/26 12:37:06;;;;;;;2.27;1.45;;;;;;;;;;1878008;75;26191;-86
2022/07/26 12:39:33;;;;;;;1.72;1.62;;;;;;;;;;1890941;75;26255;-87
2022/07/26 12:42:02;;;;;;;1.80;1.70;;;;;;;;;;1879546;75;26629;-87
2022/07/26 12:44:29;;;;;;;1.80;1.70;;;;;;;;;;1886359;75;26267;-86
2022/07/26 12:46:57;;;;;;;1.50;1.47;;;;;;;;;;1880072;75;26227;-86
2022/07/26 12:49:24;;;;;;;1.72;1.62;;;;;;;;;;1886678;75;26179;-86
2022/07/26 12:51:51;;;;;;;2.65;1.80;;;;;;;;;;1882704;75;26196;-86
2022/07/26 12:54:18;;;;;;;1.62;1.50;;;;;;;;;;1891420;75;26153;-85
2022/07/26 12:56:46;;;;;;;1.82;1.72;;;;;;;;;;1891866;74;26196;-86
2022/07/26 12:59:13;;;;;;;2.17;1.70;;;;;;;;;;1896883;75;26322;-84
2022/07/26 13:01:40;;;;;;;2.70;1.80;;;;;;;;;;1876574;76;26251;-87
2022/07/26 13:04:07;;;;;;;4.22;1.87;;;;;;;;;;1893130;74;26233;-87
2022/07/26 13:06:35;;;;;;;3.45;1.60;;;;;;;;;;1889103;75;26260;-85
2022/07/26 13:09:02;;;;;;;2.65;1.70;;;;;;;;;;1899649;74;26244;-86
2022/07/26 13:11:30;;;;;;;2.10;1.70;;;;;;;;;;1886814;74;26299;-86
2022/07/26 13:13:57;;;;;;;3.77;1.80;;;;;;;;;;1898727;74;26272;-86
2022/07/26 13:16:24;;;;;;;3.98;1.67;;;;;;;;;;1893255;74;26228;-86
2022/07/26 13:18:52;;;;;;;1.87;1.77;;;;;;;;;;1881043;75;26226;-86
2022/07/26 13:21:19;;;;;;;2.75;1.90;;;;;;;;;;1885076;75;26212;-86
2022/07/26 13:23:46;;;;;;;2.02;1.85;;;;;;;;;;1882519;76;26314;-84
2022/07/26 13:26:13;;;;;;;2.87;1.80;;;;;;;;;;1881533;74;26221;-85
2022/07/26 13:28:41;;;;;;;3.08;1.80;;;;;;;;;;1882667;75;26164;-83
2022/07/26 13:31:08;;;;;;;2.10;1.90;;;;;;;;;;1887319;74;26168;-84
2022/07/26 13:33:38;;;;;;;2.33;1.80;;;;;;;;;;1882880;75;26207;-84
2022/07/26 13:36:04;;;;;;;4.00;2.15;;;;;;;;;;1884360;75;27030;-84
2022/07/26 13:38:35;;;;;;;3.65;1.98;;;;;;;;;;1877533;75;26195;-84
2022/07/26 13:41:03;;;;;;;2.40;1.85;;;;;;;;;;1881596;75;26655;-85
2022/07/26 13:43:30;;;;;;;2.33;1.82;;;;;;;;;;1885886;75;26230;-85
2022/07/26 13:45:57;;;;;;;3.02;1.55;;;;;;;;;;1880921;75;26218;-85
2022/07/26 13:48:25;;;;;;;1.57;1.55;;;;;;;;;;1879717;74;26306;-84
2022/07/26 13:50:56;;;;;;;1.70;1.60;;;;;;;;;;1878863;75;26276;-84
2022/07/26 13:53:24;;;;;;;1.98;1.70;;;;;;;;;;1876996;75;26257;-85
2022/07/26 13:55:51;;;;;;;3.50;1.60;;;;;;;;;;1871489;75;26295;-84
2022/07/26 13:58:20;;;;;;;3.42;1.60;;;;;;;;;;1885756;75;26199;-84
2022/07/26 14:00:48;;;;;;;1.82;1.42;;;;;;;;;;1892350;75;26325;-84
2022/07/26 14:03:15;;;;;;;1.75;1.60;;;;;;;;;;1873985;74;26882;-84
2022/07/26 14:05:42;;;;;;;1.70;1.50;;;;;;;;;;1881206;74;26306;-85
2022/07/26 14:08:10;;;;;;;3.62;1.60;;;;;;;;;;1883440;75;26184;-85
2022/07/26 14:10:38;;;;;;;3.00;1.75;;;;;;;;;;1888458;75;26168;-84
2022/07/26 14:13:06;;;;;;;2.15;1.70;;;;;;;;;;1891233;75;26407;-85
2022/07/26 14:15:33;;;;;;;2.20;1.50;;;;;;;;;;1891495;75;26647;-85
2022/07/26 14:18:01;;;;;;;1.70;1.60;;;;;;;;;;1885932;75;26264;-84
2022/07/26 14:20:28;;;;;;;1.20;1.20;;;;;;;;;;1880015;75;26765;-84
2022/07/26 14:22:56;;;;;;;1.30;1.30;;;;;;;;;;1884547;75;26499;-84
2022/07/26 14:25:24;;;;;;;1.37;1.30;;;;;;;;;;1875800;74;26260;-83
2022/07/26 14:27:51;;;;;;;1.32;1.32;;;;;;;;;;1884528;75;26206;-84
2022/07/26 14:30:19;;;;;;;1.55;1.30;;;;;;;;;;1888587;75;26183;-85
2022/07/26 14:32:47;;;;;;;1.37;1.32;;;;;;;;;;1876352;76;26176;-85
2022/07/26 14:35:16;;;;;;;1.30;1.30;;;;;;;;;;1894616;74;26617;-89
2022/07/26 14:37:43;;;;;;;1.62;1.52;;;;;;;;;;1889811;74;26755;-85
2022/07/26 14:40:11;;;;;;;1.60;1.50;;;;;;;;;;1906716;74;27070;-85
2022/07/26 14:42:39;;;;;;;1.65;1.62;;;;;;;;;;1881838;75;26289;-85
2022/07/26 14:45:07;;;;;;;1.50;1.40;;;;;;;;;;1873322;75;26161;-83
2022/07/26 14:47:34;;;;;;;1.45;1.37;;;;;;;;;;1885744;75;26191;-85